Time;durP1;ratioP1;P1;durP2;ratioP2;P2;SDS_P1;SDS_P2;PMS_P1;PMS_P2;Temp;Humidity;BMP_temperature;BMP_pressure;BME280_temperature;BME280_humidity;BME280_pressure;Samples;Min_cycle;Max_cycle;Signal;HPM_P1;HPM_P2
2022/03/05 00:01:30;;;;;;;13.32;5.75;;;;;;;;;;4930344;29;20205;-76
2022/03/05 00:04:01;;;;;;;17.02;6.82;;;;;;;;;;4926035;29;20055;-77
2022/03/05 00:06:29;;;;;;;18.42;6.93;;;;;;;;;;4932719;29;20106;-76
2022/03/05 00:08:58;;;;;;;17.23;6.00;;;;;;;;;;4932040;29;20504;-76
2022/03/05 00:11:26;;;;;;;15.30;6.72;;;;;;;;;;4929994;29;20555;-77
2022/03/05 00:13:55;;;;;;;14.18;6.47;;;;;;;;;;4931584;29;20083;-77
2022/03/05 00:16:23;;;;;;;19.80;6.00;;;;;;;;;;4928319;29;20052;-77
2022/03/05 00:18:53;;;;;;;11.32;5.25;;;;;;;;;;4932926;29;20154;-77
2022/03/05 00:21:22;;;;;;;16.00;5.82;;;;;;;;;;4932880;29;20051;-76
2022/03/05 00:23:51;;;;;;;18.13;6.00;;;;;;;;;;4932772;29;20059;-78
2022/03/05 00:26:19;;;;;;;16.35;6.30;;;;;;;;;;4932925;29;20075;-76
2022/03/05 00:28:47;;;;;;;13.70;6.10;;;;;;;;;;4930740;29;20079;-77
2022/03/05 00:31:16;;;;;;;13.57;6.43;;;;;;;;;;4932703;29;20127;-76
2022/03/05 00:33:44;;;;;;;15.02;6.10;;;;;;;;;;4932011;29;20044;-77
2022/03/05 00:36:13;;;;;;;19.40;6.35;;;;;;;;;;4931097;29;20075;-77
2022/03/05 00:38:42;;;;;;;20.17;7.63;;;;;;;;;;4926620;29;20135;-77
2022/03/05 00:41:11;;;;;;;16.05;6.55;;;;;;;;;;4929738;29;20048;-77
2022/03/05 00:43:39;;;;;;;18.23;6.47;;;;;;;;;;4932789;29;20075;-77
2022/03/05 00:46:08;;;;;;;23.35;7.55;;;;;;;;;;4928326;29;20146;-77
2022/03/05 00:48:37;;;;;;;19.02;7.07;;;;;;;;;;4929775;29;20056;-77
2022/03/05 00:51:05;;;;;;;22.60;7.30;;;;;;;;;;4932433;29;20558;-77
2022/03/05 00:53:34;;;;;;;21.98;7.45;;;;;;;;;;4931383;29;20126;-76
2022/03/05 00:56:06;;;;;;;21.98;6.45;;;;;;;;;;4934817;29;20155;-75
2022/03/05 00:58:34;;;;;;;23.75;7.15;;;;;;;;;;4935361;29;20420;-76
2022/03/05 01:01:05;;;;;;;20.98;6.70;;;;;;;;;;4928755;29;20551;-76
2022/03/05 01:03:34;;;;;;;21.50;7.55;;;;;;;;;;4936781;29;20047;-76
2022/03/05 01:06:06;;;;;;;19.83;7.68;;;;;;;;;;4932217;29;20151;-75
2022/03/05 01:08:34;;;;;;;19.95;7.15;;;;;;;;;;4935096;29;20079;-76
2022/03/05 01:11:08;;;;;;;21.77;6.38;;;;;;;;;;4933689;29;20504;-76
2022/03/05 01:13:37;;;;;;;24.52;8.05;;;;;;;;;;4935758;29;20482;-76
2022/03/05 01:16:05;;;;;;;19.77;7.55;;;;;;;;;;4935943;29;20051;-76
2022/03/05 01:18:34;;;;;;;21.92;8.15;;;;;;;;;;4935758;29;20429;-76
2022/03/05 01:21:05;;;;;;;22.55;7.40;;;;;;;;;;4934129;29;20083;-76
2022/03/05 01:23:34;;;;;;;20.60;7.10;;;;;;;;;;4935124;29;20079;-76
2022/03/05 01:26:05;;;;;;;17.77;6.70;;;;;;;;;;4934669;29;20055;-76
2022/03/05 01:28:35;;;;;;;17.67;6.82;;;;;;;;;;4932696;29;20126;-76
2022/03/05 01:31:06;;;;;;;18.70;6.88;;;;;;;;;;4932445;29;20135;-76
2022/03/05 01:33:34;;;;;;;20.63;6.57;;;;;;;;;;4936615;29;20048;-77
2022/03/05 01:36:06;;;;;;;21.77;8.20;;;;;;;;;;4931875;29;20515;-77
2022/03/05 01:38:34;;;;;;;19.98;7.70;;;;;;;;;;4934754;29;20443;-77
2022/03/05 01:41:07;;;;;;;16.95;7.47;;;;;;;;;;4936214;29;20051;-76
2022/03/05 01:43:36;;;;;;;18.23;6.95;;;;;;;;;;4934455;29;20134;-77
2022/03/05 01:46:07;;;;;;;20.88;8.30;;;;;;;;;;4936878;29;20086;-77
2022/03/05 01:48:36;;;;;;;18.95;7.25;;;;;;;;;;4934550;29;20497;-77
2022/03/05 01:51:07;;;;;;;21.48;7.72;;;;;;;;;;4933842;29;20094;-76
2022/03/05 01:53:36;;;;;;;20.83;8.23;;;;;;;;;;4935182;29;20132;-77
2022/03/05 01:56:07;;;;;;;22.35;6.97;;;;;;;;;;4934602;29;20135;-76
2022/03/05 01:58:37;;;;;;;25.83;7.85;;;;;;;;;;4934669;29;20082;-77
2022/03/05 02:01:08;;;;;;;21.50;7.07;;;;;;;;;;4932273;29;20052;-76
2022/03/05 02:03:37;;;;;;;16.75;7.57;;;;;;;;;;4932810;29;20075;-76
2022/03/05 02:06:05;;;;;;;23.15;7.90;;;;;;;;;;4931096;29;20111;-78
2022/03/05 02:08:34;;;;;;;19.83;8.15;;;;;;;;;;4934650;29;20131;-76
2022/03/05 02:11:04;;;;;;;19.67;6.97;;;;;;;;;;4937758;29;20130;-76
2022/03/05 02:13:33;;;;;;;20.50;6.85;;;;;;;;;;4933873;29;20103;-76
2022/03/05 02:16:05;;;;;;;23.42;7.82;;;;;;;;;;4934437;29;20063;-77
2022/03/05 02:18:33;;;;;;;19.40;7.35;;;;;;;;;;4933238;29;20079;-76
2022/03/05 02:21:06;;;;;;;18.30;7.88;;;;;;;;;;4925792;29;20074;-77
2022/03/05 02:23:34;;;;;;;26.10;8.40;;;;;;;;;;4929379;29;20075;-76
2022/03/05 02:26:05;;;;;;;20.35;8.38;;;;;;;;;;4933036;29;20134;-76
2022/03/05 02:28:34;;;;;;;18.83;7.80;;;;;;;;;;4929300;29;20130;-76
2022/03/05 02:31:06;;;;;;;21.55;7.43;;;;;;;;;;4932377;29;20101;-76
2022/03/05 02:33:35;;;;;;;18.30;6.85;;;;;;;;;;4931552;29;20309;-76
2022/03/05 02:36:07;;;;;;;22.20;7.78;;;;;;;;;;4932339;29;20586;-76
2022/03/05 02:38:35;;;;;;;19.67;7.40;;;;;;;;;;4931701;29;20488;-76
2022/03/05 02:41:07;;;;;;;21.70;7.95;;;;;;;;;;4932236;29;20296;-76
2022/03/05 02:43:36;;;;;;;24.50;9.07;;;;;;;;;;4933368;29;20508;-76
2022/03/05 02:46:07;;;;;;;23.33;7.20;;;;;;;;;;4932807;29;20395;-76
2022/03/05 02:48:36;;;;;;;18.77;7.20;;;;;;;;;;4927190;29;20099;-76
2022/03/05 02:51:08;;;;;;;19.95;7.63;;;;;;;;;;4927154;29;20056;-76
2022/03/05 02:53:36;;;;;;;19.75;7.28;;;;;;;;;;4929217;29;20090;-77
2022/03/05 02:56:08;;;;;;;18.92;6.78;;;;;;;;;;4932149;29;20321;-77
2022/03/05 02:58:36;;;;;;;19.05;7.30;;;;;;;;;;4930680;29;20090;-77
2022/03/05 03:01:08;;;;;;;17.35;5.80;;;;;;;;;;4927996;29;20087;-77
2022/03/05 03:03:37;;;;;;;15.45;6.30;;;;;;;;;;4932526;29;20044;-77
2022/03/05 03:06:05;;;;;;;25.45;6.97;;;;;;;;;;4931719;29;20043;-76
2022/03/05 03:08:35;;;;;;;15.95;7.10;;;;;;;;;;4931787;29;20087;-77
2022/03/05 03:11:06;;;;;;;16.30;6.55;;;;;;;;;;4926068;29;20620;-76
2022/03/05 03:13:35;;;;;;;13.73;6.18;;;;;;;;;;4929820;29;20154;-76
2022/03/05 03:16:06;;;;;;;19.27;6.28;;;;;;;;;;4932064;29;20083;-76
2022/03/05 03:18:35;;;;;;;19.63;6.72;;;;;;;;;;4933438;29;20102;-77
2022/03/05 03:21:06;;;;;;;18.45;6.80;;;;;;;;;;4933311;29;20105;-77
2022/03/05 03:23:36;;;;;;;21.60;7.32;;;;;;;;;;4934457;29;20086;-77
2022/03/05 03:26:07;;;;;;;16.65;6.72;;;;;;;;;;4931017;29;20143;-77
2022/03/05 03:28:35;;;;;;;18.48;6.13;;;;;;;;;;4932430;29;20092;-77
2022/03/05 03:31:07;;;;;;;21.15;7.55;;;;;;;;;;4930956;29;20330;-77
2022/03/05 03:33:35;;;;;;;19.63;6.30;;;;;;;;;;4932938;29;20044;-76
2022/03/05 03:36:06;;;;;;;18.05;6.65;;;;;;;;;;4931353;29;20052;-76
2022/03/05 03:38:36;;;;;;;22.08;7.10;;;;;;;;;;4929183;29;20050;-77
2022/03/05 03:41:07;;;;;;;19.85;6.60;;;;;;;;;;4929307;29;20146;-76
2022/03/05 03:43:36;;;;;;;20.45;6.63;;;;;;;;;;4926226;29;20043;-77
2022/03/05 03:46:07;;;;;;;16.30;6.80;;;;;;;;;;4930568;29;20405;-77
2022/03/05 03:48:36;;;;;;;16.80;6.07;;;;;;;;;;4931668;29;20491;-77
2022/03/05 03:51:07;;;;;;;19.17;6.55;;;;;;;;;;4931677;29;20082;-77
2022/03/05 03:53:37;;;;;;;15.65;6.35;;;;;;;;;;4929534;29;20483;-77
2022/03/05 03:56:06;;;;;;;15.15;6.25;;;;;;;;;;4931567;29;20102;-75
2022/03/05 03:58:34;;;;;;;17.60;5.30;;;;;;;;;;4934080;29;20051;-77
2022/03/05 04:01:05;;;;;;;19.17;6.32;;;;;;;;;;4927535;29;20566;-77
2022/03/05 04:03:34;;;;;;;17.65;6.60;;;;;;;;;;4921920;29;20067;-77
2022/03/05 04:06:05;;;;;;;19.10;6.82;;;;;;;;;;4931537;29;20560;-76
2022/03/05 04:08:42;;;;;;;20.15;7.35;;;;;;;;;;4931962;29;20079;-76
2022/03/05 04:11:12;;;;;;;17.38;5.75;;;;;;;;;;4896886;29;20051;-76
2022/03/05 04:13:40;;;;;;;19.45;6.65;;;;;;;;;;4927116;29;20071;-76
2022/03/05 04:16:08;;;;;;;15.65;7.13;;;;;;;;;;4930784;29;20130;-76
2022/03/05 04:18:37;;;;;;;14.52;6.13;;;;;;;;;;4931808;29;20048;-76
2022/03/05 04:21:07;;;;;;;13.32;5.95;;;;;;;;;;4930270;29;20139;-76
2022/03/05 04:23:35;;;;;;;16.35;6.80;;;;;;;;;;4931821;29;20118;-76
2022/03/05 04:26:06;;;;;;;15.20;6.35;;;;;;;;;;4933544;29;20127;-76
2022/03/05 04:28:36;;;;;;;19.25;6.63;;;;;;;;;;4934625;29;20132;-77
2022/03/05 04:31:07;;;;;;;16.55;6.78;;;;;;;;;;4928321;29;20639;-76
2022/03/05 04:33:36;;;;;;;24.75;7.22;;;;;;;;;;4928504;29;20040;-76
2022/03/05 04:36:07;;;;;;;17.20;7.03;;;;;;;;;;4934655;29;20098;-75
2022/03/05 04:38:36;;;;;;;15.90;6.30;;;;;;;;;;4934451;29;20134;-76
2022/03/05 04:41:07;;;;;;;24.52;7.10;;;;;;;;;;4932768;29;20346;-76
2022/03/05 04:43:37;;;;;;;13.55;6.13;;;;;;;;;;4935946;29;20087;-76
2022/03/05 04:46:06;;;;;;;21.25;7.47;;;;;;;;;;4935539;29;20067;-75
2022/03/05 04:48:34;;;;;;;20.90;6.10;;;;;;;;;;4935099;29;20446;-76
2022/03/05 04:51:06;;;;;;;17.88;6.15;;;;;;;;;;4933887;29;20074;-76
2022/03/05 04:53:34;;;;;;;13.15;6.07;;;;;;;;;;4934845;29;20050;-76
2022/03/05 04:56:06;;;;;;;13.05;6.07;;;;;;;;;;4932404;29;20138;-76
2022/03/05 04:58:34;;;;;;;19.85;6.47;;;;;;;;;;4934641;29;20139;-75
2022/03/05 05:01:06;;;;;;;18.33;7.50;;;;;;;;;;4921639;29;20508;-76
2022/03/05 05:03:35;;;;;;;16.35;6.35;;;;;;;;;;4935579;29;20059;-76
2022/03/05 05:06:06;;;;;;;14.23;5.72;;;;;;;;;;4934681;29;20083;-76
2022/03/05 05:08:34;;;;;;;17.45;6.20;;;;;;;;;;4932823;29;20139;-76
2022/03/05 05:11:06;;;;;;;13.82;5.35;;;;;;;;;;4934500;29;20104;-76
2022/03/05 05:13:34;;;;;;;17.60;6.25;;;;;;;;;;4932201;29;20048;-76
2022/03/05 05:16:06;;;;;;;17.88;6.35;;;;;;;;;;4934715;29;20142;-77
2022/03/05 05:18:35;;;;;;;12.85;6.25;;;;;;;;;;4934120;29;20330;-77
2022/03/05 05:21:06;;;;;;;14.55;6.32;;;;;;;;;;4931379;29;20086;-76
2022/03/05 05:23:34;;;;;;;15.18;6.25;;;;;;;;;;4934756;29;20223;-76
2022/03/05 05:26:06;;;;;;;18.08;6.32;;;;;;;;;;4928650;29;20040;-76
2022/03/05 05:28:34;;;;;;;14.18;5.32;;;;;;;;;;4934923;29;20583;-77
2022/03/05 05:31:06;;;;;;;20.40;6.25;;;;;;;;;;4933679;29;20071;-76
2022/03/05 05:33:34;;;;;;;16.58;6.32;;;;;;;;;;4934752;29;20281;-75
2022/03/05 05:36:05;;;;;;;16.80;6.38;;;;;;;;;;4932413;29;20075;-75
2022/03/05 05:38:34;;;;;;;18.63;6.72;;;;;;;;;;4933128;29;20225;-76
2022/03/05 05:41:05;;;;;;;17.42;6.22;;;;;;;;;;4931041;29;20086;-76
2022/03/05 05:43:33;;;;;;;16.95;5.85;;;;;;;;;;4933149;29;20511;-76
2022/03/05 05:46:04;;;;;;;14.15;6.65;;;;;;;;;;4932568;29;20059;-76
2022/03/05 05:48:54;;;;;;;16.98;6.13;;;;;;;;;;4931278;29;20064;-77
2022/03/05 05:51:22;;;;;;;12.95;6.25;;;;;;;;;;4934119;29;20485;-77
2022/03/05 05:53:55;;;;;;;19.23;6.47;;;;;;;;;;4932935;29;20539;-77
2022/03/05 05:56:23;;;;;;;20.00;6.57;;;;;;;;;;4933007;29;20122;-77
2022/03/05 05:58:52;;;;;;;17.52;6.95;;;;;;;;;;4932956;29;20055;-77
2022/03/05 06:01:20;;;;;;;17.45;6.63;;;;;;;;;;4933383;29;20115;-77
2022/03/05 06:03:50;;;;;;;18.23;6.15;;;;;;;;;;4927437;29;20443;-77
2022/03/05 06:06:20;;;;;;;15.23;6.20;;;;;;;;;;4933467;29;20071;-77
2022/03/05 06:08:48;;;;;;;14.93;6.90;;;;;;;;;;4930800;29;20051;-77
2022/03/05 06:11:17;;;;;;;14.48;6.03;;;;;;;;;;4929474;29;20237;-77
2022/03/05 06:13:45;;;;;;;17.48;5.90;;;;;;;;;;4930208;29;20626;-75
2022/03/05 06:16:13;;;;;;;16.50;6.28;;;;;;;;;;4931147;29;20113;-76
2022/03/05 06:18:42;;;;;;;16.27;7.00;;;;;;;;;;4926174;29;20052;-76
2022/03/05 06:21:11;;;;;;;13.82;6.45;;;;;;;;;;4930990;29;20048;-76
2022/03/05 06:23:40;;;;;;;25.65;7.45;;;;;;;;;;4930910;29;20040;-77
2022/03/05 06:26:09;;;;;;;19.67;7.80;;;;;;;;;;4930877;29;20143;-77
2022/03/05 06:28:37;;;;;;;14.43;7.13;;;;;;;;;;4930222;29;20048;-77
2022/03/05 06:31:06;;;;;;;16.88;6.20;;;;;;;;;;4926698;29;20048;-77
2022/03/05 06:33:34;;;;;;;14.50;6.55;;;;;;;;;;4931424;29;20074;-77
2022/03/05 06:36:06;;;;;;;16.77;5.82;;;;;;;;;;4930527;29;20142;-77
2022/03/05 06:38:34;;;;;;;24.63;7.15;;;;;;;;;;4930572;29;20487;-77
2022/03/05 06:41:06;;;;;;;17.88;6.15;;;;;;;;;;4925774;29;20107;-77
2022/03/05 06:43:35;;;;;;;18.80;7.65;;;;;;;;;;4928534;29;20055;-77
2022/03/05 06:46:06;;;;;;;16.85;6.60;;;;;;;;;;4930618;29;20147;-77
2022/03/05 06:48:35;;;;;;;19.92;7.88;;;;;;;;;;4926637;29;20059;-77
2022/03/05 06:51:06;;;;;;;13.77;6.25;;;;;;;;;;4927970;29;20560;-77
2022/03/05 06:53:35;;;;;;;17.63;6.70;;;;;;;;;;4930174;29;20056;-77
2022/03/05 06:56:08;;;;;;;20.48;8.15;;;;;;;;;;4928910;29;20083;-77
2022/03/05 06:58:36;;;;;;;21.13;6.82;;;;;;;;;;4927532;29;20466;-77
2022/03/05 07:01:07;;;;;;;21.60;8.40;;;;;;;;;;4927497;29;20060;-77
2022/03/05 07:03:36;;;;;;;20.27;8.15;;;;;;;;;;4926513;29;20051;-77
2022/03/05 07:06:05;;;;;;;21.08;6.88;;;;;;;;;;4923726;29;20093;-77
2022/03/05 07:08:33;;;;;;;24.73;8.68;;;;;;;;;;4926156;29;20055;-77
2022/03/05 07:11:05;;;;;;;26.60;9.63;;;;;;;;;;4921928;29;20424;-77
2022/03/05 07:13:35;;;;;;;24.85;8.77;;;;;;;;;;4923879;29;20487;-77
2022/03/05 07:16:07;;;;;;;25.45;9.25;;;;;;;;;;4928667;29;20451;-77
2022/03/05 07:18:35;;;;;;;23.40;8.23;;;;;;;;;;4927502;29;20381;-78
2022/03/05 07:21:06;;;;;;;30.08;9.45;;;;;;;;;;4929687;29;20075;-77
2022/03/05 07:23:34;;;;;;;30.23;10.82;;;;;;;;;;4924709;29;20051;-77
2022/03/05 07:26:06;;;;;;;35.05;10.05;;;;;;;;;;4928168;29;20079;-77
2022/03/05 07:28:36;;;;;;;22.80;9.00;;;;;;;;;;4924030;29;21106;-77
2022/03/05 07:31:07;;;;;;;29.17;8.73;;;;;;;;;;4929779;29;20123;-76
2022/03/05 07:33:35;;;;;;;22.63;9.23;;;;;;;;;;4926132;29;20694;-77
2022/03/05 07:36:07;;;;;;;30.13;11.25;;;;;;;;;;4925797;29;20174;-77
2022/03/05 07:38:35;;;;;;;24.13;9.07;;;;;;;;;;4921915;29;20110;-76
2022/03/05 07:41:07;;;;;;;30.33;10.05;;;;;;;;;;4925919;29;20097;-76
2022/03/05 07:43:36;;;;;;;31.58;10.80;;;;;;;;;;4927934;29;20532;-78
2022/03/05 07:46:05;;;;;;;31.02;10.93;;;;;;;;;;4928594;29;20052;-78
2022/03/05 07:48:34;;;;;;;25.23;9.52;;;;;;;;;;4926763;29;20056;-78
2022/03/05 07:51:05;;;;;;;30.00;10.55;;;;;;;;;;4927072;29;20146;-78
2022/03/05 07:53:33;;;;;;;24.35;9.50;;;;;;;;;;4928514;29;20780;-78
2022/03/05 07:56:05;;;;;;;30.50;10.88;;;;;;;;;;4928003;29;20488;-78
2022/03/05 07:58:33;;;;;;;24.40;10.73;;;;;;;;;;4919284;29;20126;-79
2022/03/05 08:01:05;;;;;;;33.35;10.77;;;;;;;;;;4922347;29;20075;-77
2022/03/05 08:03:34;;;;;;;30.98;11.40;;;;;;;;;;4928605;29;20151;-78
2022/03/05 08:06:06;;;;;;;33.50;11.65;;;;;;;;;;4930212;29;20060;-77
2022/03/05 08:08:34;;;;;;;33.17;11.60;;;;;;;;;;4925580;29;20448;-76
2022/03/05 08:11:06;;;;;;;31.73;12.43;;;;;;;;;;4928898;29;20141;-77
2022/03/05 08:13:34;;;;;;;31.15;11.15;;;;;;;;;;4926662;29;20147;-77
2022/03/05 08:16:07;;;;;;;31.23;10.63;;;;;;;;;;4929324;29;20135;-76
2022/03/05 08:18:35;;;;;;;38.85;12.38;;;;;;;;;;4928641;29;20563;-76
2022/03/05 08:21:08;;;;;;;32.45;11.02;;;;;;;;;;4929210;29;20138;-78
2022/03/05 08:23:36;;;;;;;33.40;11.73;;;;;;;;;;4928892;29;20039;-78
2022/03/05 08:26:12;;;;;;;34.47;11.93;;;;;;;;;;4926130;29;20157;-78
2022/03/05 08:28:43;;;;;;;35.28;12.18;;;;;;;;;;4929531;29;20111;-78
2022/03/05 08:31:13;;;;;;;31.45;11.27;;;;;;;;;;4928517;29;20059;-77
2022/03/05 08:33:42;;;;;;;41.38;12.02;;;;;;;;;;4924216;29;20047;-76
2022/03/05 08:36:10;;;;;;;29.30;11.05;;;;;;;;;;4928382;29;20052;-76
2022/03/05 08:38:40;;;;;;;32.85;11.20;;;;;;;;;;4929436;29;20060;-77
2022/03/05 08:41:09;;;;;;;34.80;11.20;;;;;;;;;;4925706;29;20431;-77
2022/03/05 08:43:37;;;;;;;34.80;12.32;;;;;;;;;;4929538;29;20047;-77
2022/03/05 08:46:06;;;;;;;32.88;12.13;;;;;;;;;;4927592;29;20487;-77
2022/03/05 08:48:36;;;;;;;35.85;13.05;;;;;;;;;;4923884;29;20483;-76
2022/03/05 08:51:05;;;;;;;26.02;11.30;;;;;;;;;;4926719;29;20142;-76
2022/03/05 08:53:34;;;;;;;29.73;10.70;;;;;;;;;;4925237;29;20131;-76
2022/03/05 08:56:05;;;;;;;27.67;11.45;;;;;;;;;;4928537;29;20138;-77
2022/03/05 08:58:33;;;;;;;35.47;12.48;;;;;;;;;;4927853;29;20134;-76
2022/03/05 09:01:05;;;;;;;31.95;10.60;;;;;;;;;;4922078;29;20345;-76
2022/03/05 09:03:34;;;;;;;31.20;10.60;;;;;;;;;;4926394;29;20550;-76
2022/03/05 09:06:06;;;;;;;26.55;10.73;;;;;;;;;;4928717;29;20134;-76
2022/03/05 09:08:37;;;;;;;31.90;11.57;;;;;;;;;;4927116;29;20106;-77
2022/03/05 09:11:06;;;;;;;31.67;10.88;;;;;;;;;;4927415;29;20083;-77
2022/03/05 09:13:34;;;;;;;29.15;11.68;;;;;;;;;;4933506;29;20051;-77
2022/03/05 09:16:06;;;;;;;28.42;11.00;;;;;;;;;;4936517;29;20509;-77
2022/03/05 09:18:35;;;;;;;28.90;10.52;;;;;;;;;;4934175;29;20055;-76
2022/03/05 09:21:07;;;;;;;30.98;11.50;;;;;;;;;;4936700;29;20055;-76
2022/03/05 09:23:36;;;;;;;27.85;9.80;;;;;;;;;;4935232;29;20086;-77
2022/03/05 09:26:07;;;;;;;25.02;11.25;;;;;;;;;;4933164;29;20139;-76
2022/03/05 09:28:36;;;;;;;23.30;10.55;;;;;;;;;;4934318;29;20138;-77
2022/03/05 09:31:08;;;;;;;26.30;10.95;;;;;;;;;;4934313;29;20066;-77
2022/03/05 09:33:36;;;;;;;24.77;10.15;;;;;;;;;;4931805;29;20062;-77
2022/03/05 09:36:09;;;;;;;25.20;9.18;;;;;;;;;;4935425;29;20079;-77
2022/03/05 09:38:38;;;;;;;27.83;10.63;;;;;;;;;;4934233;29;20495;-77
2022/03/05 09:41:07;;;;;;;21.42;9.18;;;;;;;;;;4931241;29;20151;-77
2022/03/05 09:43:36;;;;;;;27.67;10.15;;;;;;;;;;4935241;29;20394;-77
2022/03/05 09:46:10;;;;;;;26.33;10.15;;;;;;;;;;4936490;29;20059;-77
2022/03/05 09:48:41;;;;;;;29.20;10.73;;;;;;;;;;4934492;29;20090;-76
2022/03/05 09:51:11;;;;;;;25.13;10.13;;;;;;;;;;4886347;29;20056;-77
2022/03/05 09:53:39;;;;;;;25.63;9.75;;;;;;;;;;4899697;29;20112;-77
2022/03/05 09:56:08;;;;;;;22.95;9.18;;;;;;;;;;4891429;29;20132;-77
2022/03/05 09:58:47;;;;;;;23.13;8.98;;;;;;;;;;4900319;29;20164;-77
2022/03/05 10:01:16;;;;;;;24.33;9.73;;;;;;;;;;4898945;29;20052;-78
2022/03/05 10:03:45;;;;;;;22.20;9.43;;;;;;;;;;4893622;29;20049;-77
2022/03/05 10:06:18;;;;;;;24.35;10.30;;;;;;;;;;4905520;29;20052;-78
2022/03/05 10:08:47;;;;;;;24.85;8.70;;;;;;;;;;4903927;29;20507;-78
2022/03/05 10:11:15;;;;;;;25.67;9.40;;;;;;;;;;4905514;29;20105;-76
2022/03/05 10:13:44;;;;;;;28.88;9.95;;;;;;;;;;4897092;29;20505;-77
2022/03/05 10:16:27;;;;;;;21.85;9.43;;;;;;;;;;4920493;29;20052;-77
2022/03/05 10:18:57;;;;;;;29.10;10.40;;;;;;;;;;4927261;29;20051;-76
2022/03/05 10:21:30;;;;;;;22.00;9.23;;;;;;;;;;4934077;29;20083;-77
2022/03/05 10:24:06;;;;;;;24.13;9.70;;;;;;;;;;4933568;29;20048;-77
2022/03/05 10:26:55;;;;;;;21.80;8.27;;;;;;;;;;4931781;29;20059;-77
2022/03/05 10:29:24;;;;;;;21.33;8.18;;;;;;;;;;4933481;29;20054;-77
2022/03/05 10:31:56;;;;;;;20.33;7.57;;;;;;;;;;4931999;29;20055;-78
2022/03/05 10:34:24;;;;;;;30.05;8.98;;;;;;;;;;4933656;29;20047;-78
2022/03/05 10:37:02;;;;;;;22.33;7.45;;;;;;;;;;4934846;29;20083;-78
2022/03/05 10:39:30;;;;;;;20.85;7.68;;;;;;;;;;4933661;29;20082;-78
2022/03/05 10:41:58;;;;;;;22.00;7.75;;;;;;;;;;4931338;29;20087;-77
2022/03/05 10:44:27;;;;;;;19.25;7.70;;;;;;;;;;4932169;29;20047;-78
2022/03/05 10:46:57;;;;;;;17.88;7.53;;;;;;;;;;4931112;29;20073;-77
2022/03/05 10:49:26;;;;;;;14.90;7.03;;;;;;;;;;4927028;29;20069;-77
2022/03/05 10:52:05;;;;;;;14.65;5.88;;;;;;;;;;4934319;29;20130;-77
2022/03/05 10:54:38;;;;;;;18.45;6.60;;;;;;;;;;4933886;29;20075;-78
2022/03/05 10:57:08;;;;;;;15.85;6.00;;;;;;;;;;4934101;29;20051;-77
2022/03/05 10:59:39;;;;;;;14.40;6.68;;;;;;;;;;4933570;29;20130;-78
2022/03/05 11:02:08;;;;;;;12.52;5.78;;;;;;;;;;4930799;29;20087;-77
2022/03/05 11:04:37;;;;;;;17.48;5.53;;;;;;;;;;4933400;29;20055;-77
2022/03/05 11:07:06;;;;;;;15.85;5.63;;;;;;;;;;4927148;29;20055;-78
2022/03/05 11:09:37;;;;;;;13.50;6.22;;;;;;;;;;4929307;29;20071;-78
2022/03/05 11:12:08;;;;;;;14.25;5.60;;;;;;;;;;4926234;29;20496;-79
2022/03/05 11:14:36;;;;;;;15.70;6.13;;;;;;;;;;4931146;29;20043;-79
2022/03/05 11:17:05;;;;;;;16.40;6.35;;;;;;;;;;4933659;29;20090;-78
2022/03/05 11:19:35;;;;;;;14.80;5.80;;;;;;;;;;4931697;29;20067;-78
2022/03/05 11:22:04;;;;;;;12.68;5.00;;;;;;;;;;4925945;29;20044;-77
2022/03/05 11:24:33;;;;;;;17.42;6.03;;;;;;;;;;4931859;29;20556;-76
2022/03/05 11:27:03;;;;;;;11.30;4.78;;;;;;;;;;4932758;29;20131;-77
2022/03/05 11:29:52;;;;;;;15.75;5.30;;;;;;;;;;4932684;29;20125;-78
2022/03/05 11:32:21;;;;;;;12.93;4.72;;;;;;;;;;4926051;29;20122;-76
2022/03/05 11:34:52;;;;;;;17.92;5.88;;;;;;;;;;4933095;29;20122;-77
2022/03/05 11:37:26;;;;;;;16.10;5.38;;;;;;;;;;4922847;29;20048;-77
2022/03/05 11:39:55;;;;;;;12.73;5.90;;;;;;;;;;4930180;29;20063;-78
2022/03/05 11:42:34;;;;;;;15.05;5.65;;;;;;;;;;4930392;29;20043;-78
2022/03/05 11:45:22;;;;;;;14.13;5.38;;;;;;;;;;4933226;29;20044;-78
2022/03/05 11:47:51;;;;;;;15.80;6.13;;;;;;;;;;4933421;29;20083;-77
2022/03/05 11:50:20;;;;;;;16.38;6.00;;;;;;;;;;4933010;29;20047;-77
2022/03/05 11:53:15;;;;;;;17.48;5.63;;;;;;;;;;4931343;29;20076;-77
2022/03/05 11:55:45;;;;;;;11.57;5.18;;;;;;;;;;4932381;29;20078;-77
2022/03/05 11:58:26;;;;;;;15.15;4.95;;;;;;;;;;4932460;29;20098;-77
2022/03/05 12:00:57;;;;;;;14.82;5.75;;;;;;;;;;4925784;29;20094;-78
2022/03/05 12:03:38;;;;;;;14.90;5.75;;;;;;;;;;4929906;29;20468;-77
2022/03/05 12:06:07;;;;;;;12.57;4.53;;;;;;;;;;4931529;29;20127;-77
2022/03/05 12:08:51;;;;;;;13.02;5.60;;;;;;;;;;4925768;29;20462;-78
2022/03/05 12:11:22;;;;;;;13.20;5.20;;;;;;;;;;4884772;29;20052;-79
2022/03/05 12:13:57;;;;;;;11.35;5.03;;;;;;;;;;4928119;29;20099;-74
2022/03/05 12:16:26;;;;;;;10.85;4.72;;;;;;;;;;4932128;29;20070;-76
2022/03/05 12:18:56;;;;;;;12.18;5.03;;;;;;;;;;4932853;29;20082;-81
2022/03/05 12:21:28;;;;;;;13.93;5.28;;;;;;;;;;4934172;29;20393;-77
2022/03/05 12:24:01;;;;;;;11.02;4.50;;;;;;;;;;4932615;29;20052;-78
2022/03/05 12:26:37;;;;;;;14.80;5.47;;;;;;;;;;4932507;29;20484;-77
2022/03/05 12:29:08;;;;;;;9.27;4.20;;;;;;;;;;4928100;29;20115;-77
2022/03/05 12:31:40;;;;;;;13.90;5.38;;;;;;;;;;4927780;29;20084;-77
2022/03/05 12:34:08;;;;;;;12.65;5.07;;;;;;;;;;4934435;29;20055;-77
2022/03/05 12:36:42;;;;;;;11.65;5.57;;;;;;;;;;4931885;29;20138;-77
2022/03/05 12:39:10;;;;;;;14.68;5.80;;;;;;;;;;4932139;29;20143;-77
2022/03/05 12:41:39;;;;;;;11.43;5.30;;;;;;;;;;4931349;29;20078;-77
2022/03/05 12:44:11;;;;;;;12.98;5.35;;;;;;;;;;4932547;29;20318;-77
2022/03/05 12:46:40;;;;;;;13.30;5.35;;;;;;;;;;4932338;29;20048;-78
2022/03/05 12:49:09;;;;;;;10.68;5.97;;;;;;;;;;4930212;29;20127;-78
2022/03/05 12:51:37;;;;;;;12.25;4.55;;;;;;;;;;4932596;29;20639;-78
2022/03/05 12:54:06;;;;;;;14.20;4.97;;;;;;;;;;4930466;29;20052;-78
2022/03/05 12:56:34;;;;;;;12.18;5.32;;;;;;;;;;4935220;29;20496;-78
2022/03/05 12:59:03;;;;;;;13.27;5.25;;;;;;;;;;4934678;29;20048;-77
2022/03/05 13:01:33;;;;;;;13.75;5.13;;;;;;;;;;4923970;29;20130;-77
2022/03/05 13:04:02;;;;;;;8.68;3.58;;;;;;;;;;4935726;29;20083;-77
2022/03/05 13:06:30;;;;;;;17.40;5.78;;;;;;;;;;4935036;29;20172;-78
2022/03/05 13:08:59;;;;;;;12.32;4.95;;;;;;;;;;4927561;29;20051;-77
2022/03/05 13:11:49;;;;;;;14.13;5.50;;;;;;;;;;4935228;29;20079;-77
2022/03/05 13:14:21;;;;;;;15.77;5.57;;;;;;;;;;4933377;29;20062;-78
2022/03/05 13:16:52;;;;;;;11.52;4.65;;;;;;;;;;4934713;29;20043;-78
2022/03/05 13:19:20;;;;;;;13.13;5.30;;;;;;;;;;4930722;29;20048;-84
2022/03/05 13:21:49;;;;;;;13.18;5.13;;;;;;;;;;4936108;29;20052;-84
2022/03/05 13:24:20;;;;;;;16.63;5.38;;;;;;;;;;4938303;29;20472;-84
2022/03/05 13:26:49;;;;;;;11.27;4.80;;;;;;;;;;4940238;29;20043;-84
2022/03/05 13:29:18;;;;;;;9.50;4.55;;;;;;;;;;4940080;29;20216;-85
2022/03/05 13:31:49;;;;;;;11.32;4.97;;;;;;;;;;4937437;29;20476;-85
2022/03/05 13:34:25;;;;;;;14.85;4.93;;;;;;;;;;4940037;29;20047;-83
2022/03/05 13:36:56;;;;;;;9.38;4.57;;;;;;;;;;4933507;29;20047;-84
2022/03/05 13:39:28;;;;;;;12.73;5.80;;;;;;;;;;4935727;29;20060;-83
2022/03/05 13:41:57;;;;;;;13.25;4.95;;;;;;;;;;4933572;29;20512;-84
2022/03/05 13:44:26;;;;;;;14.77;5.88;;;;;;;;;;4934116;29;20073;-84
2022/03/05 13:46:56;;;;;;;13.93;5.97;;;;;;;;;;4939025;29;20039;-84
2022/03/05 13:49:33;;;;;;;15.98;5.85;;;;;;;;;;4924112;29;20051;-84
2022/03/05 13:52:02;;;;;;;13.98;5.18;;;;;;;;;;4938787;29;20048;-84
2022/03/05 13:54:33;;;;;;;15.38;6.00;;;;;;;;;;4939571;29;20058;-84
2022/03/05 13:57:09;;;;;;;14.32;6.13;;;;;;;;;;4933430;29;20080;-83
2022/03/05 13:59:43;;;;;;;13.30;5.53;;;;;;;;;;4942477;29;20075;-84
2022/03/05 14:02:12;;;;;;;17.13;5.50;;;;;;;;;;4933527;29;20043;-83
2022/03/05 14:04:56;;;;;;;12.30;5.53;;;;;;;;;;4938889;29;20051;-83
2022/03/05 14:07:26;;;;;;;11.38;5.30;;;;;;;;;;4936070;29;20071;-86
2022/03/05 14:09:56;;;;;;;13.80;5.47;;;;;;;;;;4932026;29;20091;-85
2022/03/05 14:12:25;;;;;;;16.20;6.03;;;;;;;;;;4939140;29;20103;-84
2022/03/05 14:14:56;;;;;;;12.15;5.45;;;;;;;;;;4935813;29;20052;-85
2022/03/05 14:17:29;;;;;;;12.15;5.10;;;;;;;;;;4923791;29;20063;-81
2022/03/05 14:20:05;;;;;;;17.05;6.38;;;;;;;;;;4937604;29;20062;-84
2022/03/05 14:22:36;;;;;;;14.90;5.72;;;;;;;;;;4939287;29;20075;-81
2022/03/05 14:25:05;;;;;;;13.25;5.57;;;;;;;;;;4929080;29;20083;-83
2022/03/05 14:27:35;;;;;;;14.63;6.03;;;;;;;;;;4939517;29;20055;-85
2022/03/05 14:30:04;;;;;;;15.35;5.95;;;;;;;;;;4933979;29;20058;-87
2022/03/05 14:32:32;;;;;;;12.80;5.78;;;;;;;;;;4939885;29;20055;-84
2022/03/05 14:35:01;;;;;;;14.65;6.05;;;;;;;;;;4940894;29;20091;-85
2022/03/05 14:37:30;;;;;;;12.88;5.75;;;;;;;;;;4940384;29;20040;-86
2022/03/05 14:39:59;;;;;;;14.18;5.93;;;;;;;;;;4938026;29;20067;-83
2022/03/05 14:42:28;;;;;;;11.85;5.72;;;;;;;;;;4936352;29;20088;-83
2022/03/05 14:44:56;;;;;;;14.10;5.90;;;;;;;;;;4938859;29;20083;-83
2022/03/05 14:47:25;;;;;;;18.67;6.03;;;;;;;;;;4933091;29;20054;-82